Time;durP1;ratioP1;P1;durP2;ratioP2;P2;SDS_P1;SDS_P2;PMS_P1;PMS_P2;Temp;Humidity;BMP_temperature;BMP_pressure;BME280_temperature;BME280_humidity;BME280_pressure;Samples;Min_cycle;Max_cycle;Signal;HPM_P1;HPM_P2
2022/02/07 00:02:07;;;;;;;;;;;;;;;19.12;47.51;100866.63;2072523;28;19979;-62
2022/02/07 00:04:15;;;;;;;;;;;;;;;19.12;47.68;100858.44;2073118;28;20570;-63
2022/02/07 00:05:21;;;;;;;;;;;;;;;19.11;47.62;100856.72;2072399;28;19924;-62
2022/02/07 00:06:22;;;;;;;;;;;;;;;19.13;47.84;100857.44;2076080;28;19917;-62
2022/02/07 00:07:22;;;;;;;;;;;;;;;19.11;47.54;100859.47;2083093;28;19920;-61
2022/02/07 00:08:22;;;;;;;;;;;;;;;19.11;47.52;100854.00;2075412;28;19917;-63
2022/02/07 00:09:23;;;;;;;;;;;;;;;19.12;47.55;100847.50;2070881;28;19928;-63
2022/02/07 00:10:23;;;;;;;;;;;;;;;19.13;47.53;100846.50;2073802;28;19929;-63
2022/02/07 00:11:24;;;;;;;;;;;;;;;19.14;47.61;100852.84;2063742;28;19921;-63
2022/02/07 00:12:24;;;;;;;;;;;;;;;19.13;47.50;100846.50;2065040;28;20292;-63
2022/02/07 00:13:25;;;;;;;;;;;;;;;19.14;47.60;100856.44;2063326;28;19921;-62
2022/02/07 00:14:25;;;;;;;;;;;;;;;19.14;47.57;100848.25;2066361;28;19917;-63
2022/02/07 00:15:26;;;;;;;;;;;;;;;19.16;47.46;100846.25;2075112;28;19924;-63
2022/02/07 00:16:26;;;;;;;;;;;;;;;19.18;47.57;100846.09;2069654;28;19925;-63
2022/02/07 00:17:27;;;;;;;;;;;;;;;19.19;47.40;100845.13;2075024;28;20054;-63
2022/02/07 00:18:28;;;;;;;;;;;;;;;19.20;47.38;100836.78;2065521;28;20513;-63
2022/02/07 00:19:28;;;;;;;;;;;;;;;19.22;47.46;100831.19;2064937;28;20818;-62
2022/02/07 00:20:29;;;;;;;;;;;;;;;19.25;47.36;100828.19;2074824;28;19987;-62
2022/02/07 00:21:29;;;;;;;;;;;;;;;19.27;47.22;100831.66;2071366;28;20074;-62
2022/02/07 00:22:30;;;;;;;;;;;;;;;19.27;47.18;100821.56;2075933;28;19908;-61
2022/02/07 00:23:30;;;;;;;;;;;;;;;19.28;47.16;100806.06;2073722;28;19913;-60
2022/02/07 00:24:30;;;;;;;;;;;;;;;19.31;47.21;100810.41;2072051;28;20389;-61
2022/02/07 00:25:31;;;;;;;;;;;;;;;19.29;47.29;100807.78;2073324;28;20361;-63
2022/02/07 00:26:31;;;;;;;;;;;;;;;19.27;47.24;100801.59;2073550;28;19941;-63
2022/02/07 00:27:32;;;;;;;;;;;;;;;19.26;47.29;100800.72;2071527;28;19909;-62
2022/02/07 00:28:32;;;;;;;;;;;;;;;19.26;47.32;100792.53;2075358;28;19925;-63
2022/02/07 00:29:32;;;;;;;;;;;;;;;19.26;47.21;100798.00;2070689;28;19978;-63
2022/02/07 00:30:33;;;;;;;;;;;;;;;19.25;47.25;100785.31;2072329;28;19940;-63
2022/02/07 00:31:36;;;;;;;;;;;;;;;19.27;47.38;100787.91;2072929;28;19909;-63
2022/02/07 00:32:37;;;;;;;;;;;;;;;19.27;47.30;100780.56;2070842;28;19948;-62
2022/02/07 00:33:37;;;;;;;;;;;;;;;19.28;47.17;100785.06;2075907;28;19921;-62
2022/02/07 00:34:39;;;;;;;;;;;;;;;19.27;47.24;100788.78;2072587;28;20128;-63
2022/02/07 00:35:39;;;;;;;;;;;;;;;19.30;47.20;100786.78;2076858;28;20005;-62
2022/02/07 00:36:40;;;;;;;;;;;;;;;19.27;47.23;100786.03;2071655;28;20397;-62
2022/02/07 00:37:42;;;;;;;;;;;;;;;19.28;47.23;100789.66;2070897;28;19931;-62
2022/02/07 00:38:46;;;;;;;;;;;;;;;19.28;47.30;100784.19;2067684;28;20367;-62
2022/02/07 00:39:56;;;;;;;;;;;;;;;19.30;47.25;100786.78;2065527;28;19959;-62
2022/02/07 00:41:16;;;;;;;;;;;;;;;19.27;47.29;100788.78;2073683;28;20367;-62
2022/02/07 00:42:31;;;;;;;;;;;;;;;19.30;47.28;100786.78;2073379;28;19921;-63
2022/02/07 00:43:39;;;;;;;;;;;;;;;19.30;47.25;100786.78;2078147;28;19928;-63
2022/02/07 00:44:39;;;;;;;;;;;;;;;19.31;47.24;100778.44;2078710;28;19984;-63
2022/02/07 00:46:58;;;;;;;;;;;;;;;19.33;47.21;100781.03;2074354;28;19920;-62
2022/02/07 00:48:00;;;;;;;;;;;;;;;19.34;47.12;100771.84;2072927;28;19921;-62
2022/02/07 00:49:00;;;;;;;;;;;;;;;19.36;47.11;100775.31;2070586;28;20355;-62
2022/02/07 00:50:01;;;;;;;;;;;;;;;19.37;47.18;100769.69;2076230;28;19921;-62
2022/02/07 00:51:01;;;;;;;;;;;;;;;19.37;47.13;100772.44;2074636;28;20050;-62
2022/02/07 00:52:02;;;;;;;;;;;;;;;19.38;47.10;100767.84;2077798;28;20298;-62
2022/02/07 00:53:03;;;;;;;;;;;;;;;19.39;47.16;100772.31;2077438;28;20058;-62
2022/02/07 00:54:03;;;;;;;;;;;;;;;19.36;47.19;100764.38;2080815;28;20353;-62
2022/02/07 00:55:03;;;;;;;;;;;;;;;19.37;47.13;100766.97;2077399;28;19927;-62
2022/02/07 00:56:04;;;;;;;;;;;;;;;19.35;47.15;100768.09;2074979;28;20187;-62
2022/02/07 00:57:04;;;;;;;;;;;;;;;19.36;47.15;100769.84;2073276;28;19965;-62
2022/02/07 00:58:05;;;;;;;;;;;;;;;19.36;47.08;100769.84;2069179;28;20192;-62
2022/02/07 00:59:05;;;;;;;;;;;;;;;19.35;47.24;100762.63;2071961;28;19948;-62
2022/02/07 01:00:06;;;;;;;;;;;;;;;19.35;47.13;100762.63;2072877;28;19960;-62
2022/02/07 01:01:06;;;;;;;;;;;;;;;19.33;47.26;100767.38;2068219;28;20333;-62
2022/02/07 01:02:06;;;;;;;;;;;;;;;19.32;47.20;100773.84;2066289;28;20236;-62
2022/02/07 01:03:07;;;;;;;;;;;;;;;19.30;47.24;100775.84;2061283;28;20037;-61
2022/02/07 01:04:07;;;;;;;;;;;;;;;19.28;47.24;100768.66;2063275;28;20658;-62
2022/02/07 01:05:08;;;;;;;;;;;;;;;19.26;47.29;100770.66;2068570;28;20960;-63
2022/02/07 01:06:08;;;;;;;;;;;;;;;19.25;47.27;100768.91;2070886;28;19924;-62
2022/02/07 01:07:09;;;;;;;;;;;;;;;19.25;47.32;100771.63;2077213;28;20327;-61
2022/02/07 01:08:10;;;;;;;;;;;;;;;19.25;47.35;100770.78;2074337;28;19971;-62
2022/02/07 01:09:20;;;;;;;;;;;;;;;19.22;47.39;100766.44;2068917;28;19917;-62
2022/02/07 01:10:38;;;;;;;;;;;;;;;19.23;47.44;100776.41;2072021;28;20205;-62
2022/02/07 01:14:17;;;;;;;;;;;;;;;19.20;47.44;100771.19;2078354;28;19920;-62
2022/02/07 01:15:30;;;;;;;;;;;;;;;19.21;47.52;100770.19;2087452;28;19917;-62
2022/02/07 01:17:17;;;;;;;;;;;;;;;19.21;47.44;100766.59;2081783;28;19994;-61
2022/02/07 01:50:45;;;;;;;;;;;;;;;19.10;47.80;100751.13;2053281;28;19913;-62
2022/02/07 01:56:12;;;;;;;;;;;;;;;19.07;47.87;100743.22;2086873;28;20251;-62
2022/02/07 01:57:13;;;;;;;;;;;;;;;19.06;47.96;100745.06;2086100;28;19917;-63
2022/02/07 01:58:13;;;;;;;;;;;;;;;19.05;47.85;100739.72;2085516;28;20021;-62
2022/02/07 01:59:14;;;;;;;;;;;;;;;19.05;47.96;100742.47;2086695;28;19916;-62
2022/02/07 02:00:17;;;;;;;;;;;;;;;19.05;47.91;100745.19;2085819;28;20011;-62
2022/02/07 02:01:17;;;;;;;;;;;;;;;19.05;47.98;100740.59;2088288;28;19920;-62
2022/02/07 02:02:17;;;;;;;;;;;;;;;19.04;47.99;100732.56;2080669;28;20262;-62
2022/02/07 02:03:18;;;;;;;;;;;;;;;19.04;47.98;100738.00;2084320;28;19935;-62
2022/02/07 02:04:18;;;;;;;;;;;;;;;19.02;48.00;100734.53;2092601;28;19920;-62
2022/02/07 02:05:19;;;;;;;;;;;;;;;19.00;47.95;100728.34;2086132;28;20613;-62
2022/02/07 02:06:20;;;;;;;;;;;;;;;19.00;48.08;100736.53;2086795;28;19916;-62
2022/02/07 02:07:21;;;;;;;;;;;;;;;18.98;48.17;100733.06;2084679;28;20311;-62
2022/02/07 02:08:21;;;;;;;;;;;;;;;18.98;48.15;100727.59;2086284;28;19905;-62
2022/02/07 02:09:22;;;;;;;;;;;;;;;18.97;48.21;100728.63;2088002;28;20331;-62
2022/02/07 02:10:23;;;;;;;;;;;;;;;18.95;47.99;100727.88;2077772;28;20399;-62
2022/02/07 02:11:23;;;;;;;;;;;;;;;18.95;48.11;100725.16;2077431;28;20107;-62
2022/02/07 02:12:27;;;;;;;;;;;;;;;18.95;48.06;100727.88;2077261;28;20648;-61
2022/02/07 02:13:41;;;;;;;;;;;;;;;18.95;48.12;100727.88;2070667;28;19924;-62
2022/02/07 02:14:58;;;;;;;;;;;;;;;18.93;48.10;100730.75;2070132;28;19917;-62
2022/02/07 02:16:08;;;;;;;;;;;;;;;18.92;48.16;100733.63;2076756;28;20098;-62
2022/02/07 02:17:45;;;;;;;;;;;;;;;18.93;48.27;100735.34;2078367;28;19984;-62
2022/02/07 02:19:12;;;;;;;;;;;;;;;18.92;48.36;100733.63;2073469;28;20009;-62
2022/02/07 02:34:05;;;;;;;;;;;;;;;18.85;48.27;100733.28;2076514;28;19916;-62
2022/02/07 02:37:27;;;;;;;;;;;;;;;18.82;48.32;100723.50;2076729;28;19917;-62
2022/02/07 02:45:20;;;;;;;;;;;;;;;18.81;48.42;100719.03;2072622;28;20191;-62
2022/02/07 02:45:31;;;;;;;;;;;;;;;18.79;48.53;100712.84;2073931;28;19917;-62
2022/02/07 02:46:31;;;;;;;;;;;;;;;18.77;48.43;100709.38;2073287;28;19967;-62
2022/02/07 02:47:34;;;;;;;;;;;;;;;18.76;48.53;100707.63;2077518;28;19917;-62
2022/02/07 02:48:40;;;;;;;;;;;;;;;18.77;48.46;100717.56;2072850;28;19917;-62
2022/02/07 02:49:47;;;;;;;;;;;;;;;18.77;48.55;100714.81;2073022;28;19928;-63
2022/02/07 02:50:50;;;;;;;;;;;;;;;18.77;48.60;100713.97;2071620;28;19951;-63
2022/02/07 02:51:51;;;;;;;;;;;;;;;18.77;48.58;100719.44;2076553;28;19990;-62
2022/02/07 02:52:51;;;;;;;;;;;;;;;18.75;48.54;100716.78;2076599;28;19944;-62
2022/02/07 02:53:51;;;;;;;;;;;;;;;18.76;48.43;100718.53;2080412;28;19978;-63
2022/02/07 02:54:51;;;;;;;;;;;;;;;18.75;48.60;100714.06;2079587;28;19920;-63
2022/02/07 02:55:52;;;;;;;;;;;;;;;18.76;48.56;100718.53;2074468;28;19958;-62
2022/02/07 02:56:52;;;;;;;;;;;;;;;18.75;48.50;100715.94;2076742;28;19991;-63
2022/02/07 02:57:53;;;;;;;;;;;;;;;18.75;48.63;100715.94;2077815;28;19917;-63
2022/02/07 02:58:53;;;;;;;;;;;;;;;18.75;48.64;100716.78;2076494;28;19928;-62
2022/02/07 02:59:53;;;;;;;;;;;;;;;18.75;48.52;100716.78;2080131;28;19939;-63
2022/02/07 03:00:54;;;;;;;;;;;;;;;18.75;48.64;100711.31;2075953;28;19980;-63
2022/02/07 03:01:54;;;;;;;;;;;;;;;18.73;48.63;100713.31;2081259;28;19920;-63
2022/02/07 03:02:55;;;;;;;;;;;;;;;18.73;48.53;100707.00;2080598;28;20326;-63
2022/02/07 03:03:56;;;;;;;;;;;;;;;18.73;48.56;100710.59;2073898;28;20034;-62
2022/02/07 03:04:56;;;;;;;;;;;;;;;18.73;48.75;100713.31;2078131;28;20381;-63
2022/02/07 03:05:57;;;;;;;;;;;;;;;18.71;48.68;100709.84;2081683;28;19908;-62
2022/02/07 03:06:57;;;;;;;;;;;;;;;18.71;48.59;100711.72;2078149;28;19913;-62
2022/02/07 03:07:58;;;;;;;;;;;;;;;18.70;48.67;100713.59;2082925;28;19944;-63
2022/02/07 03:09:00;;;;;;;;;;;;;;;18.69;48.77;100716.44;2078634;28;20785;-63
2022/02/07 03:10:02;;;;;;;;;;;;;;;18.69;48.63;100710.97;2080267;28;20173;-62
2022/02/07 03:12:03;;;;;;;;;;;;;;;18.67;48.72;100719.31;2074254;28;20011;-62
2022/02/07 03:13:34;;;;;;;;;;;;;;;18.66;48.65;100714.84;2066404;28;20589;-62
2022/02/07 03:14:42;;;;;;;;;;;;;;;18.65;48.73;100715.84;2068918;28;19909;-62
2022/02/07 03:17:02;;;;;;;;;;;;;;;18.63;48.88;100712.38;2081488;28;20202;-63
2022/02/07 03:18:03;;;;;;;;;;;;;;;18.63;48.90;100717.84;2076623;28;20437;-62
2022/02/07 03:19:07;;;;;;;;;;;;;;;18.62;48.87;100710.66;2078221;28;19924;-63
2022/02/07 03:20:07;;;;;;;;;;;;;;;18.61;48.90;100708.91;2077455;28;19943;-63
2022/02/07 03:21:07;;;;;;;;;;;;;;;18.60;49.01;100713.53;2070207;28;20318;-62
2022/02/07 03:22:09;;;;;;;;;;;;;;;18.59;48.90;100705.44;2066052;28;20002;-63
2022/02/07 03:23:09;;;;;;;;;;;;;;;18.60;48.94;100701.72;2052466;28;19989;-63
2022/02/07 03:24:09;;;;;;;;;;;;;;;18.60;48.82;100707.19;2061545;28;20362;-62
2022/02/07 03:25:10;;;;;;;;;;;;;;;18.61;49.16;100703.47;2078581;28;19912;-62
2022/02/07 03:26:13;;;;;;;;;;;;;;;18.60;49.00;100709.94;2078201;28;19979;-62
2022/02/07 03:27:14;;;;;;;;;;;;;;;18.59;48.97;100706.34;2076619;28;20005;-63
2022/02/07 03:28:14;;;;;;;;;;;;;;;18.60;48.96;100715.38;2077364;28;19917;-64
2022/02/07 03:29:15;;;;;;;;;;;;;;;18.60;48.83;100712.66;2072396;28;19909;-61
2022/02/07 03:30:15;;;;;;;;;;;;;;;18.59;49.04;100705.44;2077107;28;20185;-61
2022/02/07 03:31:16;;;;;;;;;;;;;;;18.59;48.96;100705.44;2066056;28;19917;-63
2022/02/07 03:32:16;;;;;;;;;;;;;;;18.59;49.03;100702.72;2069084;28;19917;-63
2022/02/07 03:33:16;;;;;;;;;;;;;;;18.58;48.92;100698.25;2077504;28;19971;-62
2022/02/07 03:34:17;;;;;;;;;;;;;;;18.58;48.92;100709.19;2077678;28;19921;-63
2022/02/07 03:35:19;;;;;;;;;;;;;;;18.56;49.02;100705.72;2075264;28;19957;-63
2022/02/07 03:36:19;;;;;;;;;;;;;;;18.55;48.95;100701.28;2077769;28;19916;-63
2022/02/07 03:37:20;;;;;;;;;;;;;;;18.54;49.05;100694.06;2077120;28;19948;-63
2022/02/07 03:38:20;;;;;;;;;;;;;;;18.53;49.15;100690.47;2076808;28;20782;-64
2022/02/07 03:39:21;;;;;;;;;;;;;;;18.52;49.05;100690.59;2073267;28;19955;-63
2022/02/07 03:40:22;;;;;;;;;;;;;;;18.52;48.95;100693.31;2073762;28;19917;-63
2022/02/07 03:41:22;;;;;;;;;;;;;;;18.51;48.99;100686.13;2077995;28;20560;-64
2022/02/07 03:42:23;;;;;;;;;;;;;;;18.50;49.18;100684.41;2071467;28;19917;-64
2022/02/07 03:43:23;;;;;;;;;;;;;;;18.51;49.22;100686.13;2078243;28;19924;-63
2022/02/07 03:44:24;;;;;;;;;;;;;;;18.48;49.13;100681.81;2061786;28;20062;-62
2022/02/07 03:45:24;;;;;;;;;;;;;;;18.49;49.16;100677.22;2065641;28;19920;-63
2022/02/07 03:46:24;;;;;;;;;;;;;;;18.49;49.20;100682.66;2076894;28;20385;-63
2022/02/07 03:47:25;;;;;;;;;;;;;;;18.49;49.20;100683.53;2079238;28;20006;-62
2022/02/07 03:48:26;;;;;;;;;;;;;;;18.50;49.30;100687.16;2073241;28;20690;-62
2022/02/07 03:49:27;;;;;;;;;;;;;;;18.49;49.25;100677.22;2075481;28;19917;-62
2022/02/07 03:50:29;;;;;;;;;;;;;;;18.49;49.23;100679.94;2081268;28;19939;-62
2022/02/07 03:51:29;;;;;;;;;;;;;;;18.47;49.14;100681.94;2077871;28;19952;-63
2022/02/07 03:52:30;;;;;;;;;;;;;;;18.47;49.23;100680.09;2074977;28;19986;-63
2022/02/07 03:53:30;;;;;;;;;;;;;;;18.48;49.16;100691.88;2072768;28;20003;-63
2022/02/07 03:54:30;;;;;;;;;;;;;;;18.47;49.30;100684.66;2072948;28;19905;-63
2022/02/07 03:55:31;;;;;;;;;;;;;;;18.46;49.35;100677.47;2075568;28;19917;-63
2022/02/07 03:56:31;;;;;;;;;;;;;;;18.47;49.30;100685.56;2079634;28;20701;-63
2022/02/07 03:57:32;;;;;;;;;;;;;;;18.47;49.27;100687.38;2077144;28;19916;-64
2022/02/07 03:58:32;;;;;;;;;;;;;;;18.47;49.28;100690.13;2074780;28;19944;-64
2022/02/07 03:59:32;;;;;;;;;;;;;;;18.47;49.18;100693.75;2078082;28;19924;-62
2022/02/07 04:00:34;;;;;;;;;;;;;;;18.47;49.08;100692.84;2076479;28;20179;-61
2022/02/07 04:01:36;;;;;;;;;;;;;;;18.47;49.14;100690.13;2085088;28;19969;-62
2022/02/07 04:02:41;;;;;;;;;;;;;;;18.47;49.13;100692.84;2065583;28;19917;-62
2022/02/07 04:03:42;;;;;;;;;;;;;;;18.46;49.23;100693.84;2064555;28;20066;-62
2022/02/07 04:04:46;;;;;;;;;;;;;;;18.45;49.31;100690.28;2075236;28;19921;-62
2022/02/07 04:05:51;;;;;;;;;;;;;;;18.43;49.15;100684.94;2078748;28;19913;-62
2022/02/07 04:06:52;;;;;;;;;;;;;;;18.44;49.38;100691.25;2082393;28;20505;-62
2022/02/07 04:07:52;;;;;;;;;;;;;;;18.42;49.36;100688.66;2071616;28;19951;-64
2022/02/07 04:08:57;;;;;;;;;;;;;;;18.42;49.33;100688.66;2067449;28;19913;-63
2022/02/07 04:09:58;;;;;;;;;;;;;;;18.41;49.18;100689.66;2078511;28;19913;-62
2022/02/07 04:11:16;;;;;;;;;;;;;;;18.40;49.39;100685.19;2079848;28;20433;-63
2022/02/07 04:12:21;;;;;;;;;;;;;;;18.40;49.19;100684.34;2067673;28;20416;-64
2022/02/07 04:13:46;;;;;;;;;;;;;;;18.39;49.35;100694.38;2060243;28;20813;-63
2022/02/07 04:14:45;;;;;;;;;;;;;;;18.37;49.35;100685.47;2064202;28;19917;-63
2022/02/07 04:15:45;;;;;;;;;;;;;;;18.38;49.27;100687.19;2080358;28;19939;-63
2022/02/07 04:16:46;;;;;;;;;;;;;;;18.38;49.20;100687.19;2067874;28;20127;-62
2022/02/07 04:17:54;;;;;;;;;;;;;;;18.37;49.39;100685.47;2069696;28;19984;-63
2022/02/07 04:19:05;;;;;;;;;;;;;;;18.36;49.47;100691.91;2078123;28;19963;-62
2022/02/07 04:20:05;;;;;;;;;;;;;;;18.36;49.47;100691.91;2067499;28;19921;-62
2022/02/07 04:21:06;;;;;;;;;;;;;;;18.35;49.50;100692.91;2080946;28;20406;-63
2022/02/07 04:22:08;;;;;;;;;;;;;;;18.34;49.42;100691.16;2075446;28;20490;-62
2022/02/07 04:23:08;;;;;;;;;;;;;;;18.34;49.40;100690.31;2080014;28;19948;-62
2022/02/07 04:24:09;;;;;;;;;;;;;;;18.33;49.40;100688.59;2069458;28;20023;-63
2022/02/07 04:25:10;;;;;;;;;;;;;;;18.32;49.56;100684.97;2059732;28;20359;-62
2022/02/07 04:26:10;;;;;;;;;;;;;;;18.33;49.29;100689.44;2066498;28;19913;-65
2022/02/07 04:27:10;;;;;;;;;;;;;;;18.33;49.54;100684.00;2078596;28;20923;-63
2022/02/07 04:28:11;;;;;;;;;;;;;;;18.33;49.50;100683.13;2075299;28;19921;-62
2022/02/07 04:29:11;;;;;;;;;;;;;;;18.32;49.42;100679.50;2077600;28;19917;-63
2022/02/07 04:30:12;;;;;;;;;;;;;;;18.32;49.59;100675.91;2071726;28;19917;-64
2022/02/07 04:31:12;;;;;;;;;;;;;;;18.32;49.48;100687.69;2070607;28;19917;-62
2022/02/07 04:32:13;;;;;;;;;;;;;;;18.33;49.40;100688.59;2069809;28;20371;-62
2022/02/07 04:33:13;;;;;;;;;;;;;;;18.33;49.33;100688.59;2074357;28;19920;-62
2022/02/07 04:34:14;;;;;;;;;;;;;;;18.32;49.42;100678.66;2083366;28;20437;-63
2022/02/07 04:35:14;;;;;;;;;;;;;;;18.32;49.33;100671.31;2075217;28;19908;-62
2022/02/07 04:36:15;;;;;;;;;;;;;;;18.31;49.46;100675.06;2072159;28;20262;-63
2022/02/07 04:37:17;;;;;;;;;;;;;;;18.29;49.64;100671.59;2078042;28;19917;-63
2022/02/07 04:38:17;;;;;;;;;;;;;;;18.29;49.39;100671.59;2072086;28;19960;-62
2022/02/07 04:39:18;;;;;;;;;;;;;;;18.28;49.48;100671.75;2073447;28;19913;-62
2022/02/07 04:40:18;;;;;;;;;;;;;;;18.27;49.55;100670.00;2079797;28;22396;-62
2022/02/07 04:41:18;;;;;;;;;;;;;;;18.27;49.59;100672.72;2074750;28;19917;-62
2022/02/07 04:42:20;;;;;;;;;;;;;;;18.25;49.54;100670.16;2079400;28;20689;-62
2022/02/07 04:43:21;;;;;;;;;;;;;;;18.24;49.58;100673.84;2074965;28;19931;-61
2022/02/07 04:44:27;;;;;;;;;;;;;;;18.24;49.50;100671.13;2074060;28;20306;-62
2022/02/07 04:49:09;;;;;;;;;;;;;;;18.22;49.81;100667.66;2077922;28;20104;-62
2022/02/07 04:54:54;;;;;;;;;;;;;;;18.20;49.88;100686.00;2077952;28;20310;-62
2022/02/07 04:58:12;;;;;;;;;;;;;;;18.20;49.57;100686.00;2073370;28;19984;-63
2022/02/07 04:59:17;;;;;;;;;;;;;;;18.20;49.62;100686.91;2078207;28;20490;-62
2022/02/07 05:03:29;;;;;;;;;;;;;;;18.19;49.59;100687.03;2076009;28;20584;-62
2022/02/07 05:04:35;;;;;;;;;;;;;;;18.19;49.76;100687.03;2081641;28;20011;-63
2022/02/07 05:14:32;;;;;;;;;;;;;;;18.13;49.78;100695.75;2069915;28;20478;-62
2022/02/07 05:15:33;;;;;;;;;;;;;;;18.12;50.00;100696.72;2076511;28;19927;-63
2022/02/07 05:16:34;;;;;;;;;;;;;;;18.13;49.94;100698.47;2073605;28;19925;-63
2022/02/07 05:17:37;;;;;;;;;;;;;;;18.12;49.83;100691.25;2079720;28;19917;-63
2022/02/07 05:18:38;;;;;;;;;;;;;;;18.11;49.93;100706.78;2072276;28;19945;-62
2022/02/07 05:19:38;;;;;;;;;;;;;;;18.11;49.84;100708.63;2072593;28;20345;-62
2022/02/07 05:20:38;;;;;;;;;;;;;;;18.10;49.87;100695.97;2077894;28;20432;-63
2022/02/07 05:21:40;;;;;;;;;;;;;;;18.11;49.82;100700.44;2077112;28;19924;-63
2022/02/07 05:22:41;;;;;;;;;;;;;;;18.10;49.89;100709.63;2069948;28;19917;-64
2022/02/07 05:23:41;;;;;;;;;;;;;;;18.10;50.08;100698.69;2072340;28;19956;-63
2022/02/07 05:24:42;;;;;;;;;;;;;;;18.08;50.11;100700.69;2072129;28;20150;-63
2022/02/07 05:25:42;;;;;;;;;;;;;;;18.08;50.08;100697.97;2070930;28;19924;-64
2022/02/07 05:26:43;;;;;;;;;;;;;;;18.07;49.93;100694.38;2075969;28;20049;-63
2022/02/07 05:27:43;;;;;;;;;;;;;;;18.07;49.95;100699.81;2078902;28;20308;-64
2022/02/07 05:28:43;;;;;;;;;;;;;;;18.08;50.06;100695.22;2077464;28;20636;-63
2022/02/07 05:29:44;;;;;;;;;;;;;;;18.08;50.07;100700.69;2077612;28;19917;-63
2022/02/07 05:30:44;;;;;;;;;;;;;;;18.07;50.12;100708.00;2081092;28;20378;-62
2022/02/07 05:31:45;;;;;;;;;;;;;;;18.08;49.99;100711.59;2077969;28;20339;-63
2022/02/07 05:32:45;;;;;;;;;;;;;;;18.08;50.10;100708.88;2076583;28;20129;-63
2022/02/07 05:33:45;;;;;;;;;;;;;;;18.08;50.08;100711.59;2079173;28;20012;-62
2022/02/07 05:34:46;;;;;;;;;;;;;;;18.07;50.09;100715.34;2078883;28;19912;-63
2022/02/07 05:35:46;;;;;;;;;;;;;;;18.07;49.90;100707.16;2064133;28;19993;-63
2022/02/07 05:36:47;;;;;;;;;;;;;;;18.07;50.08;100705.28;2070215;28;19921;-62
2022/02/07 05:37:47;;;;;;;;;;;;;;;18.06;49.92;100711.75;2078865;28;19978;-64
2022/02/07 05:38:51;;;;;;;;;;;;;;;18.06;49.85;100708.16;2087752;28;19916;-63
2022/02/07 05:39:56;;;;;;;;;;;;;;;18.04;50.13;100711.00;2066793;28;20099;-63
2022/02/07 05:41:00;;;;;;;;;;;;;;;18.04;49.96;100710.16;2072026;28;19926;-62
2022/02/07 05:42:06;;;;;;;;;;;;;;;18.04;50.35;100715.59;2072172;28;19913;-64
2022/02/07 05:43:08;;;;;;;;;;;;;;;18.02;50.15;100707.53;2076173;28;19927;-62
2022/02/07 05:44:08;;;;;;;;;;;;;;;18.03;50.37;100714.75;2074871;28;19917;-61
2022/02/07 05:45:09;;;;;;;;;;;;;;;18.01;50.29;100716.72;2080150;28;20011;-60
2022/02/07 05:46:09;;;;;;;;;;;;;;;18.01;50.37;100730.38;2077800;28;19923;-62
2022/02/07 05:47:10;;;;;;;;;;;;;;;18.01;50.29;100727.63;2081567;28;19960;-62
2022/02/07 05:48:10;;;;;;;;;;;;;;;18.00;50.35;100726.75;2066127;28;21062;-63
2022/02/07 05:49:11;;;;;;;;;;;;;;;17.99;50.38;100730.47;2068776;28;19909;-62
2022/02/07 05:50:11;;;;;;;;;;;;;;;17.99;50.16;100733.22;2077488;28;19917;-62
2022/02/07 05:51:12;;;;;;;;;;;;;;;17.98;50.34;100736.94;2076557;28;19932;-62
2022/02/07 05:52:12;;;;;;;;;;;;;;;17.98;50.28;100738.78;2070482;28;19913;-62
2022/02/07 05:53:12;;;;;;;;;;;;;;;17.97;50.44;100737.06;2078020;28;19916;-62
2022/02/07 05:54:13;;;;;;;;;;;;;;;17.97;50.21;100737.06;2076350;28;19963;-63
2022/02/07 05:55:15;;;;;;;;;;;;;;;17.97;50.52;100737.91;2068023;28;19910;-63
2022/02/07 05:56:15;;;;;;;;;;;;;;;17.97;50.19;100742.50;2069252;28;19917;-63
2022/02/07 05:57:15;;;;;;;;;;;;;;;17.97;50.41;100751.56;2074763;28;20632;-64
2022/02/07 05:58:16;;;;;;;;;;;;;;;17.97;50.24;100751.56;2080021;28;19917;-63
2022/02/07 05:59:16;;;;;;;;;;;;;;;17.98;50.25;100760.59;2073735;28;19964;-62
2022/02/07 06:00:16;;;;;;;;;;;;;;;17.99;50.50;100767.81;2074709;28;19916;-63
2022/02/07 06:01:16;;;;;;;;;;;;;;;17.97;50.20;100765.19;2065019;28;20308;-62
2022/02/07 06:02:17;;;;;;;;;;;;;;;17.99;50.19;100767.81;2065795;28;19953;-62
2022/02/07 06:03:18;;;;;;;;;;;;;;;17.99;50.33;100768.66;2078200;28;20227;-63
2022/02/07 06:04:18;;;;;;;;;;;;;;;17.98;50.49;100776.97;2076361;28;19940;-62
2022/02/07 06:05:18;;;;;;;;;;;;;;;17.99;50.32;100778.72;2075050;28;20140;-63
2022/02/07 06:06:19;;;;;;;;;;;;;;;17.99;50.32;100779.59;2079547;28;19979;-62
2022/02/07 06:07:19;;;;;;;;;;;;;;;17.99;50.19;100790.50;2076030;28;19928;-62
2022/02/07 06:08:19;;;;;;;;;;;;;;;17.98;50.27;100786.03;2077311;28;19909;-64
2022/02/07 06:09:20;;;;;;;;;;;;;;;17.97;50.26;100787.03;2079008;28;20192;-62
2022/02/07 06:10:20;;;;;;;;;;;;;;;17.99;50.54;100798.69;2077494;28;19925;-62
2022/02/07 06:11:21;;;;;;;;;;;;;;;17.98;50.33;100788.78;2078211;28;19908;-62
2022/02/07 06:12:21;;;;;;;;;;;;;;;17.96;50.41;100785.31;2077698;28;19905;-62
2022/02/07 06:13:21;;;;;;;;;;;;;;;17.96;50.46;100784.44;2079464;28;19944;-62
2022/02/07 06:14:22;;;;;;;;;;;;;;;17.94;50.51;100784.56;2067613;28;19936;-63
2022/02/07 06:15:22;;;;;;;;;;;;;;;17.95;50.67;100796.31;2065957;28;20379;-64
2022/02/07 06:16:22;;;;;;;;;;;;;;;17.93;50.49;100782.84;2080021;28;19935;-63
2022/02/07 06:17:23;;;;;;;;;;;;;;;17.93;50.62;100791.00;2074728;28;19917;-62
2022/02/07 06:18:23;;;;;;;;;;;;;;;17.94;50.52;100792.72;2075553;28;19976;-62
2022/02/07 06:19:24;;;;;;;;;;;;;;;17.92;50.46;100794.72;2075368;28;19908;-62
2022/02/07 06:20:24;;;;;;;;;;;;;;;17.91;50.56;100790.25;2073250;28;19921;-62
2022/02/07 06:21:26;;;;;;;;;;;;;;;17.91;50.76;100786.69;2070105;28;19917;-62
2022/02/07 06:22:27;;;;;;;;;;;;;;;17.90;50.60;100796.69;2077479;28;19917;-62
2022/02/07 06:23:28;;;;;;;;;;;;;;;17.90;50.80;100785.78;2073882;28;20032;-62
2022/02/07 06:24:28;;;;;;;;;;;;;;;17.90;50.45;100788.50;2080077;28;19970;-62
2022/02/07 06:25:29;;;;;;;;;;;;;;;17.90;50.54;100788.50;2077707;28;19916;-62
2022/02/07 06:26:30;;;;;;;;;;;;;;;17.88;50.75;100787.75;2074168;28;19916;-62
2022/02/07 06:27:30;;;;;;;;;;;;;;;17.88;50.59;100787.75;2079947;28;20737;-62
2022/02/07 06:28:31;;;;;;;;;;;;;;;17.88;50.57;100786.91;2059835;28;19913;-62
2022/02/07 06:29:31;;;;;;;;;;;;;;;17.88;50.65;100795.94;2061311;28;20824;-62
2022/02/07 06:30:31;;;;;;;;;;;;;;;17.88;50.70;100792.34;2078915;28;19920;-62
2022/02/07 06:31:32;;;;;;;;;;;;;;;17.88;50.62;100798.69;2075422;28;20004;-63
2022/02/07 06:32:32;;;;;;;;;;;;;;;17.88;50.79;100793.22;2078274;28;19923;-61
2022/02/07 06:33:32;;;;;;;;;;;;;;;17.88;50.79;100793.22;2077669;28;20346;-63
2022/02/07 06:34:33;;;;;;;;;;;;;;;17.88;50.66;100801.41;2075911;28;19917;-63
2022/02/07 06:35:33;;;;;;;;;;;;;;;17.88;50.87;100801.41;2074472;28;19916;-63
2022/02/07 06:36:33;;;;;;;;;;;;;;;17.88;50.76;100804.13;2074420;28;20334;-61
2022/02/07 06:37:34;;;;;;;;;;;;;;;17.89;50.69;100805.03;2072147;28;19975;-62
2022/02/07 06:38:34;;;;;;;;;;;;;;;17.89;50.63;100805.88;2071298;28;19964;-61
2022/02/07 06:39:35;;;;;;;;;;;;;;;17.90;50.51;100804.88;2068318;28;19921;-62
2022/02/07 06:40:35;;;;;;;;;;;;;;;17.90;50.45;100807.59;2078556;28;19931;-62
2022/02/07 06:41:35;;;;;;;;;;;;;;;17.89;50.69;100811.34;2075345;28;19931;-62
2022/02/07 06:42:36;;;;;;;;;;;;;;;17.89;50.73;100815.94;2071443;28;20135;-62
2022/02/07 06:43:36;;;;;;;;;;;;;;;17.90;50.71;100823.09;2074987;28;20007;-62
2022/02/07 06:44:36;;;;;;;;;;;;;;;17.90;50.77;100812.19;2061657;28;19914;-62
2022/02/07 06:45:37;;;;;;;;;;;;;;;17.89;50.67;100819.53;2068007;28;19925;-63
2022/02/07 06:46:37;;;;;;;;;;;;;;;17.89;50.52;100819.53;2075135;28;20642;-63
2022/02/07 06:47:38;;;;;;;;;;;;;;;17.88;50.49;100820.50;2075350;28;19931;-63
2022/02/07 06:48:38;;;;;;;;;;;;;;;17.90;50.83;100823.97;2079506;28;19920;-63